sensor_id;sensor_type;location;lat;lon;timestamp;temperature;humidity
41922;DHT22;27609;51.002;5.354;2022-07-25T00:00:34;22.50;99.90
41922;DHT22;27609;51.002;5.354;2022-07-25T00:03:00;22.30;99.90
41922;DHT22;27609;51.002;5.354;2022-07-25T00:05:26;22.40;99.90
41922;DHT22;27609;51.002;5.354;2022-07-25T00:07:52;22.50;99.90
41922;DHT22;27609;51.002;5.354;2022-07-25T00:10:19;22.60;99.90
41922;DHT22;27609;51.002;5.354;2022-07-25T00:12:45;22.50;99.90
41922;DHT22;27609;51.002;5.354;2022-07-25T00:15:11;22.40;99.90
41922;DHT22;27609;51.002;5.354;2022-07-25T00:17:38;22.50;99.90
41922;DHT22;27609;51.002;5.354;2022-07-25T00:20:04;22.50;99.90
41922;DHT22;27609;51.002;5.354;2022-07-25T00:22:32;22.50;99.90
41922;DHT22;27609;51.002;5.354;2022-07-25T00:24:58;22.70;99.90
41922;DHT22;27609;51.002;5.354;2022-07-25T00:27:24;22.50;99.90
41922;DHT22;27609;51.002;5.354;2022-07-25T00:29:50;22.60;99.90
41922;DHT22;27609;51.002;5.354;2022-07-25T00:32:16;22.50;99.90
41922;DHT22;27609;51.002;5.354;2022-07-25T00:34:42;22.30;99.90
41922;DHT22;27609;51.002;5.354;2022-07-25T00:37:08;22.20;99.90
41922;DHT22;27609;51.002;5.354;2022-07-25T00:39:34;22.20;99.90
41922;DHT22;27609;51.002;5.354;2022-07-25T00:42:00;22.30;99.90
41922;DHT22;27609;51.002;5.354;2022-07-25T00:44:29;22.30;99.90
41922;DHT22;27609;51.002;5.354;2022-07-25T00:46:56;22.20;99.90
41922;DHT22;27609;51.002;5.354;2022-07-25T00:49:24;22.20;99.90
41922;DHT22;27609;51.002;5.354;2022-07-25T00:51:51;22.20;99.90
41922;DHT22;27609;51.002;5.354;2022-07-25T00:54:18;22.20;99.90
41922;DHT22;27609;51.002;5.354;2022-07-25T00:56:45;22.20;99.90
41922;DHT22;27609;51.002;5.354;2022-07-25T00:59:11;22.10;99.90
41922;DHT22;27609;51.002;5.354;2022-07-25T01:01:38;22.10;99.90
41922;DHT22;27609;51.002;5.354;2022-07-25T01:04:04;22.10;99.90
41922;DHT22;27609;51.002;5.354;2022-07-25T01:06:31;22.00;99.90
41922;DHT22;27609;51.002;5.354;2022-07-25T01:08:57;22.00;99.90
41922;DHT22;27609;51.002;5.354;2022-07-25T01:11:24;22.00;99.90
41922;DHT22;27609;51.002;5.354;2022-07-25T01:13:50;21.90;99.90
41922;DHT22;27609;51.002;5.354;2022-07-25T01:16:17;21.90;99.90
41922;DHT22;27609;51.002;5.354;2022-07-25T01:18:43;22.10;99.90
41922;DHT22;27609;51.002;5.354;2022-07-25T01:21:09;21.80;99.90
41922;DHT22;27609;51.002;5.354;2022-07-25T01:23:35;21.70;99.90
41922;DHT22;27609;51.002;5.354;2022-07-25T01:26:01;21.70;99.90
41922;DHT22;27609;51.002;5.354;2022-07-25T01:28:28;21.50;99.90
41922;DHT22;27609;51.002;5.354;2022-07-25T01:30:54;21.70;99.90
41922;DHT22;27609;51.002;5.354;2022-07-25T01:33:21;21.70;99.90
41922;DHT22;27609;51.002;5.354;2022-07-25T01:35:48;21.70;99.90
41922;DHT22;27609;51.002;5.354;2022-07-25T01:38:15;21.60;99.90
41922;DHT22;27609;51.002;5.354;2022-07-25T01:40:42;22.00;99.90
41922;DHT22;27609;51.002;5.354;2022-07-25T01:43:09;21.50;99.90
41922;DHT22;27609;51.002;5.354;2022-07-25T01:45:35;21.40;99.90
41922;DHT22;27609;51.002;5.354;2022-07-25T01:48:01;21.40;99.90
41922;DHT22;27609;51.002;5.354;2022-07-25T01:50:27;21.40;99.90
41922;DHT22;27609;51.002;5.354;2022-07-25T01:52:54;21.40;99.90
41922;DHT22;27609;51.002;5.354;2022-07-25T01:55:20;21.40;99.90
41922;DHT22;27609;51.002;5.354;2022-07-25T01:57:46;21.40;99.90
41922;DHT22;27609;51.002;5.354;2022-07-25T02:00:13;21.40;99.90
41922;DHT22;27609;51.002;5.354;2022-07-25T02:02:43;21.40;99.90
41922;DHT22;27609;51.002;5.354;2022-07-25T02:05:10;21.90;99.90
41922;DHT22;27609;51.002;5.354;2022-07-25T02:07:36;21.50;99.90
41922;DHT22;27609;51.002;5.354;2022-07-25T02:10:05;21.30;99.90
41922;DHT22;27609;51.002;5.354;2022-07-25T02:12:31;21.60;99.90
41922;DHT22;27609;51.002;5.354;2022-07-25T02:14:57;21.10;99.90
41922;DHT22;27609;51.002;5.354;2022-07-25T02:17:23;21.30;99.90
41922;DHT22;27609;51.002;5.354;2022-07-25T02:19:49;21.40;99.90
41922;DHT22;27609;51.002;5.354;2022-07-25T02:22:16;21.30;99.90
41922;DHT22;27609;51.002;5.354;2022-07-25T02:24:42;21.30;99.90
41922;DHT22;27609;51.002;5.354;2022-07-25T02:27:08;21.20;99.90
41922;DHT22;27609;51.002;5.354;2022-07-25T02:29:34;21.30;99.90
41922;DHT22;27609;51.002;5.354;2022-07-25T02:32:00;21.40;99.90
41922;DHT22;27609;51.002;5.354;2022-07-25T02:34:26;21.30;99.90
41922;DHT22;27609;51.002;5.354;2022-07-25T02:36:52;21.30;99.90
41922;DHT22;27609;51.002;5.354;2022-07-25T02:39:18;21.40;99.90
41922;DHT22;27609;51.002;5.354;2022-07-25T02:41:44;21.30;99.90
41922;DHT22;27609;51.002;5.354;2022-07-25T02:44:10;21.20;99.90
41922;DHT22;27609;51.002;5.354;2022-07-25T02:46:37;21.20;99.90
41922;DHT22;27609;51.002;5.354;2022-07-25T02:49:03;21.20;99.90
41922;DHT22;27609;51.002;5.354;2022-07-25T02:51:30;21.10;99.90
41922;DHT22;27609;51.002;5.354;2022-07-25T02:53:56;21.00;99.90
41922;DHT22;27609;51.002;5.354;2022-07-25T02:56:22;21.00;99.90
41922;DHT22;27609;51.002;5.354;2022-07-25T02:58:49;21.10;99.90
41922;DHT22;27609;51.002;5.354;2022-07-25T03:01:15;21.40;99.90
41922;DHT22;27609;51.002;5.354;2022-07-25T03:03:40;21.30;99.90
41922;DHT22;27609;51.002;5.354;2022-07-25T03:06:07;21.20;99.90
41922;DHT22;27609;51.002;5.354;2022-07-25T03:08:32;21.50;99.90
41922;DHT22;27609;51.002;5.354;2022-07-25T03:10:58;21.20;99.90
41922;DHT22;27609;51.002;5.354;2022-07-25T03:13:24;21.20;99.90
41922;DHT22;27609;51.002;5.354;2022-07-25T03:15:50;21.30;99.90
41922;DHT22;27609;51.002;5.354;2022-07-25T03:18:16;21.40;99.90
41922;DHT22;27609;51.002;5.354;2022-07-25T03:20:42;21.40;99.90
41922;DHT22;27609;51.002;5.354;2022-07-25T03:23:08;21.40;99.90
41922;DHT22;27609;51.002;5.354;2022-07-25T03:25:34;21.50;99.90
41922;DHT22;27609;51.002;5.354;2022-07-25T03:28:00;21.60;99.90
41922;DHT22;27609;51.002;5.354;2022-07-25T03:30:26;21.60;99.90
41922;DHT22;27609;51.002;5.354;2022-07-25T03:32:52;21.60;99.90
41922;DHT22;27609;51.002;5.354;2022-07-25T03:35:19;21.50;99.90
41922;DHT22;27609;51.002;5.354;2022-07-25T03:37:45;21.60;99.90
41922;DHT22;27609;51.002;5.354;2022-07-25T03:40:12;21.60;99.90
41922;DHT22;27609;51.002;5.354;2022-07-25T03:42:39;21.70;99.90
41922;DHT22;27609;51.002;5.354;2022-07-25T03:45:05;21.50;99.90
41922;DHT22;27609;51.002;5.354;2022-07-25T03:47:32;21.30;99.90
41922;DHT22;27609;51.002;5.354;2022-07-25T03:49:57;21.50;99.90
41922;DHT22;27609;51.002;5.354;2022-07-25T03:52:23;21.30;99.90
41922;DHT22;27609;51.002;5.354;2022-07-25T03:54:49;21.30;99.90
41922;DHT22;27609;51.002;5.354;2022-07-25T03:57:15;21.30;99.90
41922;DHT22;27609;51.002;5.354;2022-07-25T03:59:41;21.20;99.90
41922;DHT22;27609;51.002;5.354;2022-07-25T04:02:07;21.00;99.90
41922;DHT22;27609;51.002;5.354;2022-07-25T04:04:33;21.00;99.90
41922;DHT22;27609;51.002;5.354;2022-07-25T04:06:59;20.90;99.90
41922;DHT22;27609;51.002;5.354;2022-07-25T04:09:25;21.00;99.90
41922;DHT22;27609;51.002;5.354;2022-07-25T04:11:51;21.00;99.90
41922;DHT22;27609;51.002;5.354;2022-07-25T04:14:17;21.00;99.90
41922;DHT22;27609;51.002;5.354;2022-07-25T04:16:42;20.90;99.90
41922;DHT22;27609;51.002;5.354;2022-07-25T04:19:08;21.00;99.90
41922;DHT22;27609;51.002;5.354;2022-07-25T04:21:35;21.00;99.90
41922;DHT22;27609;51.002;5.354;2022-07-25T04:24:01;21.00;99.90
41922;DHT22;27609;51.002;5.354;2022-07-25T04:26:27;21.20;99.90
41922;DHT22;27609;51.002;5.354;2022-07-25T04:28:53;21.00;99.90
41922;DHT22;27609;51.002;5.354;2022-07-25T04:31:19;21.00;99.90
41922;DHT22;27609;51.002;5.354;2022-07-25T04:33:45;21.00;99.90
41922;DHT22;27609;51.002;5.354;2022-07-25T04:36:11;21.00;99.90
41922;DHT22;27609;51.002;5.354;2022-07-25T04:38:37;21.30;99.90
41922;DHT22;27609;51.002;5.354;2022-07-25T04:41:03;21.50;99.90
41922;DHT22;27609;51.002;5.354;2022-07-25T04:43:29;21.70;99.90
41922;DHT22;27609;51.002;5.354;2022-07-25T04:45:55;22.00;99.90
41922;DHT22;27609;51.002;5.354;2022-07-25T04:48:21;22.00;99.90
41922;DHT22;27609;51.002;5.354;2022-07-25T04:50:47;22.20;99.90
41922;DHT22;27609;51.002;5.354;2022-07-25T04:53:13;22.40;99.90
41922;DHT22;27609;51.002;5.354;2022-07-25T04:55:39;22.60;99.90
41922;DHT22;27609;51.002;5.354;2022-07-25T04:58:05;22.40;99.90
41922;DHT22;27609;51.002;5.354;2022-07-25T05:00:31;22.20;99.90
41922;DHT22;27609;51.002;5.354;2022-07-25T05:02:57;21.90;99.90
41922;DHT22;27609;51.002;5.354;2022-07-25T05:05:23;22.00;99.90
41922;DHT22;27609;51.002;5.354;2022-07-25T05:07:54;22.00;99.90
41922;DHT22;27609;51.002;5.354;2022-07-25T05:10:20;22.30;99.90
41922;DHT22;27609;51.002;5.354;2022-07-25T05:12:46;22.50;99.90
41922;DHT22;27609;51.002;5.354;2022-07-25T05:15:12;22.60;99.90
41922;DHT22;27609;51.002;5.354;2022-07-25T05:17:38;22.90;99.90
41922;DHT22;27609;51.002;5.354;2022-07-25T05:20:05;23.10;99.90
41922;DHT22;27609;51.002;5.354;2022-07-25T05:22:31;23.30;99.90
41922;DHT22;27609;51.002;5.354;2022-07-25T05:24:57;22.90;99.90
41922;DHT22;27609;51.002;5.354;2022-07-25T05:27:23;22.50;99.90
41922;DHT22;27609;51.002;5.354;2022-07-25T05:29:48;22.50;99.90
41922;DHT22;27609;51.002;5.354;2022-07-25T05:32:14;22.40;99.90
41922;DHT22;27609;51.002;5.354;2022-07-25T05:34:40;22.40;99.90
41922;DHT22;27609;51.002;5.354;2022-07-25T05:37:06;22.50;99.90
41922;DHT22;27609;51.002;5.354;2022-07-25T05:39:32;22.60;99.90
41922;DHT22;27609;51.002;5.354;2022-07-25T05:41:58;22.80;99.90
41922;DHT22;27609;51.002;5.354;2022-07-25T05:44:24;22.70;99.90
41922;DHT22;27609;51.002;5.354;2022-07-25T05:46:50;22.80;99.90
41922;DHT22;27609;51.002;5.354;2022-07-25T05:49:16;22.90;99.90
41922;DHT22;27609;51.002;5.354;2022-07-25T05:51:42;23.00;99.90
41922;DHT22;27609;51.002;5.354;2022-07-25T05:54:08;23.00;99.90
41922;DHT22;27609;51.002;5.354;2022-07-25T05:56:34;22.90;99.90
41922;DHT22;27609;51.002;5.354;2022-07-25T05:59:00;22.80;99.90
41922;DHT22;27609;51.002;5.354;2022-07-25T06:01:26;22.70;99.90
41922;DHT22;27609;51.002;5.354;2022-07-25T06:03:52;22.80;99.90
41922;DHT22;27609;51.002;5.354;2022-07-25T06:06:17;22.90;99.90
41922;DHT22;27609;51.002;5.354;2022-07-25T06:08:43;23.30;99.90
41922;DHT22;27609;51.002;5.354;2022-07-25T06:11:09;23.50;99.90
41922;DHT22;27609;51.002;5.354;2022-07-25T06:13:35;23.70;99.90
41922;DHT22;27609;51.002;5.354;2022-07-25T06:16:01;23.80;99.90
41922;DHT22;27609;51.002;5.354;2022-07-25T06:18:30;23.90;99.90
41922;DHT22;27609;51.002;5.354;2022-07-25T06:20:56;24.20;99.90
41922;DHT22;27609;51.002;5.354;2022-07-25T06:23:23;24.50;99.90
41922;DHT22;27609;51.002;5.354;2022-07-25T06:25:48;24.80;99.90
41922;DHT22;27609;51.002;5.354;2022-07-25T06:28:14;25.00;99.90
41922;DHT22;27609;51.002;5.354;2022-07-25T06:30:41;24.90;99.90
41922;DHT22;27609;51.002;5.354;2022-07-25T06:33:07;24.90;99.90
41922;DHT22;27609;51.002;5.354;2022-07-25T06:35:34;25.00;99.90
41922;DHT22;27609;51.002;5.354;2022-07-25T06:38:00;25.00;99.90
41922;DHT22;27609;51.002;5.354;2022-07-25T06:40:26;24.80;99.90
41922;DHT22;27609;51.002;5.354;2022-07-25T06:42:52;25.20;99.90
41922;DHT22;27609;51.002;5.354;2022-07-25T06:45:18;25.10;99.90
41922;DHT22;27609;51.002;5.354;2022-07-25T06:47:44;25.60;99.90
41922;DHT22;27609;51.002;5.354;2022-07-25T06:50:13;25.80;99.90
41922;DHT22;27609;51.002;5.354;2022-07-25T06:52:39;25.40;99.90
41922;DHT22;27609;51.002;5.354;2022-07-25T06:55:07;25.40;99.90
41922;DHT22;27609;51.002;5.354;2022-07-25T06:57:34;24.90;99.90
41922;DHT22;27609;51.002;5.354;2022-07-25T07:00:01;25.10;99.90
41922;DHT22;27609;51.002;5.354;2022-07-25T07:02:30;24.70;99.90
41922;DHT22;27609;51.002;5.354;2022-07-25T07:04:56;24.50;99.90
41922;DHT22;27609;51.002;5.354;2022-07-25T07:07:22;24.40;99.90
41922;DHT22;27609;51.002;5.354;2022-07-25T07:09:48;24.40;99.90
41922;DHT22;27609;51.002;5.354;2022-07-25T07:12:14;24.40;99.90
41922;DHT22;27609;51.002;5.354;2022-07-25T07:14:39;24.40;99.90
41922;DHT22;27609;51.002;5.354;2022-07-25T07:17:06;24.40;99.90
41922;DHT22;27609;51.002;5.354;2022-07-25T07:19:32;24.60;99.90
41922;DHT22;27609;51.002;5.354;2022-07-25T07:21:58;24.60;99.90
41922;DHT22;27609;51.002;5.354;2022-07-25T07:24:24;24.50;99.90
41922;DHT22;27609;51.002;5.354;2022-07-25T07:26:52;24.70;99.90
41922;DHT22;27609;51.002;5.354;2022-07-25T07:29:18;25.10;99.90
41922;DHT22;27609;51.002;5.354;2022-07-25T07:31:44;25.40;99.90
41922;DHT22;27609;51.002;5.354;2022-07-25T07:34:10;25.80;99.90
41922;DHT22;27609;51.002;5.354;2022-07-25T07:36:36;26.40;99.90
41922;DHT22;27609;51.002;5.354;2022-07-25T07:39:02;26.80;99.90
41922;DHT22;27609;51.002;5.354;2022-07-25T07:41:28;27.20;99.90
41922;DHT22;27609;51.002;5.354;2022-07-25T07:43:54;28.40;99.90
41922;DHT22;27609;51.002;5.354;2022-07-25T07:46:20;29.50;99.90
41922;DHT22;27609;51.002;5.354;2022-07-25T07:48:46;31.30;97.50
41922;DHT22;27609;51.002;5.354;2022-07-25T07:51:12;31.30;96.20
41922;DHT22;27609;51.002;5.354;2022-07-25T07:53:38;30.00;97.50
41922;DHT22;27609;51.002;5.354;2022-07-25T07:56:22;30.70;97.00
41922;DHT22;27609;51.002;5.354;2022-07-25T07:58:48;30.80;96.50
41922;DHT22;27609;51.002;5.354;2022-07-25T08:01:16;29.80;97.50
41922;DHT22;27609;51.002;5.354;2022-07-25T08:03:42;30.40;97.40
41922;DHT22;27609;51.002;5.354;2022-07-25T08:06:08;30.80;96.40
41922;DHT22;27609;51.002;5.354;2022-07-25T08:08:34;31.10;95.40
41922;DHT22;27609;51.002;5.354;2022-07-25T08:11:00;31.00;95.10
41922;DHT22;27609;51.002;5.354;2022-07-25T08:13:28;31.10;95.10
41922;DHT22;27609;51.002;5.354;2022-07-25T08:15:56;32.10;93.70
41922;DHT22;27609;51.002;5.354;2022-07-25T08:18:23;31.70;93.70
41922;DHT22;27609;51.002;5.354;2022-07-25T08:20:50;32.50;94.00
41922;DHT22;27609;51.002;5.354;2022-07-25T08:23:16;32.10;93.60
41922;DHT22;27609;51.002;5.354;2022-07-25T08:25:43;33.70;92.30
41922;DHT22;27609;51.002;5.354;2022-07-25T08:28:09;34.40;91.60
41922;DHT22;27609;51.002;5.354;2022-07-25T08:30:36;34.70;90.70
41922;DHT22;27609;51.002;5.354;2022-07-25T08:33:04;34.90;88.80
41922;DHT22;27609;51.002;5.354;2022-07-25T08:35:31;34.50;88.70
41922;DHT22;27609;51.002;5.354;2022-07-25T08:37:58;34.30;88.70
41922;DHT22;27609;51.002;5.354;2022-07-25T08:40:26;33.40;90.30
41922;DHT22;27609;51.002;5.354;2022-07-25T08:42:52;32.60;91.40
41922;DHT22;27609;51.002;5.354;2022-07-25T08:45:25;33.40;90.50
41922;DHT22;27609;51.002;5.354;2022-07-25T08:47:52;34.40;88.10
41922;DHT22;27609;51.002;5.354;2022-07-25T08:50:26;35.90;84.60
41922;DHT22;27609;51.002;5.354;2022-07-25T08:52:52;37.50;83.50
41922;DHT22;27609;51.002;5.354;2022-07-25T08:55:20;36.20;82.40
41922;DHT22;27609;51.002;5.354;2022-07-25T08:57:49;35.90;84.20
41922;DHT22;27609;51.002;5.354;2022-07-25T09:00:18;33.70;88.20
41922;DHT22;27609;51.002;5.354;2022-07-25T09:02:54;32.10;90.90
41922;DHT22;27609;51.002;5.354;2022-07-25T09:05:21;31.40;92.40
41922;DHT22;27609;51.002;5.354;2022-07-25T09:07:47;32.40;91.60
41922;DHT22;27609;51.002;5.354;2022-07-25T09:17:54;33.40;89.60
41922;DHT22;27609;51.002;5.354;2022-07-25T09:20:20;34.40;88.40
41922;DHT22;27609;51.002;5.354;2022-07-25T09:22:47;34.60;87.80
41922;DHT22;27609;51.002;5.354;2022-07-25T09:25:24;34.40;86.30
41922;DHT22;27609;51.002;5.354;2022-07-25T09:27:51;34.60;88.10
41922;DHT22;27609;51.002;5.354;2022-07-25T09:30:17;34.70;86.90
41922;DHT22;27609;51.002;5.354;2022-07-25T09:32:43;35.10;85.80
41922;DHT22;27609;51.002;5.354;2022-07-25T09:35:09;34.20;87.30
41922;DHT22;27609;51.002;5.354;2022-07-25T09:37:35;33.50;87.80
41922;DHT22;27609;51.002;5.354;2022-07-25T09:40:12;32.80;90.20
41922;DHT22;27609;51.002;5.354;2022-07-25T09:42:39;33.60;89.50
41922;DHT22;27609;51.002;5.354;2022-07-25T09:45:10;33.40;88.10
41922;DHT22;27609;51.002;5.354;2022-07-25T09:48:01;34.40;85.30
41922;DHT22;27609;51.002;5.354;2022-07-25T09:50:29;34.90;86.10
41922;DHT22;27609;51.002;5.354;2022-07-25T09:52:58;35.10;84.20
41922;DHT22;27609;51.002;5.354;2022-07-25T09:55:26;35.60;83.80
41922;DHT22;27609;51.002;5.354;2022-07-25T09:57:53;35.60;83.20
41922;DHT22;27609;51.002;5.354;2022-07-25T10:00:22;35.00;82.30
41922;DHT22;27609;51.002;5.354;2022-07-25T10:02:55;33.30;85.80
41922;DHT22;27609;51.002;5.354;2022-07-25T10:05:29;34.20;86.80
41922;DHT22;27609;51.002;5.354;2022-07-25T10:07:56;35.80;82.60
41922;DHT22;27609;51.002;5.354;2022-07-25T10:10:36;33.50;85.80
41922;DHT22;27609;51.002;5.354;2022-07-25T10:13:05;33.30;87.40
41922;DHT22;27609;51.002;5.354;2022-07-25T10:15:48;34.30;85.60
41922;DHT22;27609;51.002;5.354;2022-07-25T10:18:25;35.00;85.20
41922;DHT22;27609;51.002;5.354;2022-07-25T10:20:54;36.30;82.20
41922;DHT22;27609;51.002;5.354;2022-07-25T10:23:23;35.40;80.70
41922;DHT22;27609;51.002;5.354;2022-07-25T10:26:07;35.90;80.50
41922;DHT22;27609;51.002;5.354;2022-07-25T10:28:38;36.50;80.40
41922;DHT22;27609;51.002;5.354;2022-07-25T10:31:25;35.80;81.40
41922;DHT22;27609;51.002;5.354;2022-07-25T10:34:04;36.50;79.50
41922;DHT22;27609;51.002;5.354;2022-07-25T10:36:51;35.00;80.20
41922;DHT22;27609;51.002;5.354;2022-07-25T10:39:21;34.20;82.40
41922;DHT22;27609;51.002;5.354;2022-07-25T10:41:57;34.10;83.10
41922;DHT22;27609;51.002;5.354;2022-07-25T10:44:38;33.10;84.70
41922;DHT22;27609;51.002;5.354;2022-07-25T10:47:08;33.90;82.30
41922;DHT22;27609;51.002;5.354;2022-07-25T10:49:36;33.30;83.40
41922;DHT22;27609;51.002;5.354;2022-07-25T10:52:03;32.10;87.00
41922;DHT22;27609;51.002;5.354;2022-07-25T10:54:37;31.60;86.60
41922;DHT22;27609;51.002;5.354;2022-07-25T10:57:04;30.30;89.90
41922;DHT22;27609;51.002;5.354;2022-07-25T10:59:34;31.80;90.70
41922;DHT22;27609;51.002;5.354;2022-07-25T11:02:02;34.80;82.50
41922;DHT22;27609;51.002;5.354;2022-07-25T11:04:28;37.70;78.00
41922;DHT22;27609;51.002;5.354;2022-07-25T11:06:54;38.70;75.80
41922;DHT22;27609;51.002;5.354;2022-07-25T11:09:23;39.70;72.70
41922;DHT22;27609;51.002;5.354;2022-07-25T11:11:51;38.90;73.90
41922;DHT22;27609;51.002;5.354;2022-07-25T11:14:28;35.90;77.20
41922;DHT22;27609;51.002;5.354;2022-07-25T11:16:55;36.20;76.30
41922;DHT22;27609;51.002;5.354;2022-07-25T11:19:26;36.50;77.30
41922;DHT22;27609;51.002;5.354;2022-07-25T11:21:56;38.50;74.30
41922;DHT22;27609;51.002;5.354;2022-07-25T11:24:44;36.50;73.80
41922;DHT22;27609;51.002;5.354;2022-07-25T11:27:22;36.30;77.60
41922;DHT22;27609;51.002;5.354;2022-07-25T11:29:48;35.90;76.80
41922;DHT22;27609;51.002;5.354;2022-07-25T11:32:15;33.40;80.60
41922;DHT22;27609;51.002;5.354;2022-07-25T11:34:43;31.50;84.30
41922;DHT22;27609;51.002;5.354;2022-07-25T11:37:12;31.40;85.70
41922;DHT22;27609;51.002;5.354;2022-07-25T11:39:40;32.10;84.00
41922;DHT22;27609;51.002;5.354;2022-07-25T11:42:09;33.60;80.60
41922;DHT22;27609;51.002;5.354;2022-07-25T11:47:05;35.30;78.10
41922;DHT22;27609;51.002;5.354;2022-07-25T11:49:44;35.80;77.10
41922;DHT22;27609;51.002;5.354;2022-07-25T11:52:24;33.70;80.60
41922;DHT22;27609;51.002;5.354;2022-07-25T11:54:55;32.20;82.20
41922;DHT22;27609;51.002;5.354;2022-07-25T11:57:23;32.00;83.30
41922;DHT22;27609;51.002;5.354;2022-07-25T11:59:50;31.70;85.20
41922;DHT22;27609;51.002;5.354;2022-07-25T12:02:28;33.90;82.50
41922;DHT22;27609;51.002;5.354;2022-07-25T12:04:59;34.90;81.20
41922;DHT22;27609;51.002;5.354;2022-07-25T12:10:31;36.60;77.10
41922;DHT22;27609;51.002;5.354;2022-07-25T12:12:58;34.80;78.50
41922;DHT22;27609;51.002;5.354;2022-07-25T12:15:34;33.50;79.70
41922;DHT22;27609;51.002;5.354;2022-07-25T12:18:00;32.50;78.60
41922;DHT22;27609;51.002;5.354;2022-07-25T12:20:30;33.00;79.10
41922;DHT22;27609;51.002;5.354;2022-07-25T12:22:58;33.20;79.90
41922;DHT22;27609;51.002;5.354;2022-07-25T12:25:25;32.60;81.10
41922;DHT22;27609;51.002;5.354;2022-07-25T12:27:53;31.60;85.20
41922;DHT22;27609;51.002;5.354;2022-07-25T12:30:19;31.70;84.60
41922;DHT22;27609;51.002;5.354;2022-07-25T12:32:45;31.10;85.80
41922;DHT22;27609;51.002;5.354;2022-07-25T12:35:12;31.30;86.30
41922;DHT22;27609;51.002;5.354;2022-07-25T12:37:41;30.70;86.50
41922;DHT22;27609;51.002;5.354;2022-07-25T12:40:08;30.30;87.50
41922;DHT22;27609;51.002;5.354;2022-07-25T12:42:34;29.90;89.10
41922;DHT22;27609;51.002;5.354;2022-07-25T12:45:01;29.30;90.30
41922;DHT22;27609;51.002;5.354;2022-07-25T12:47:27;29.00;90.70
41922;DHT22;27609;51.002;5.354;2022-07-25T12:49:54;28.90;91.20
41922;DHT22;27609;51.002;5.354;2022-07-25T12:52:20;28.60;91.40
41922;DHT22;27609;51.002;5.354;2022-07-25T12:54:47;28.20;92.10
41922;DHT22;27609;51.002;5.354;2022-07-25T12:57:13;28.00;92.90
41922;DHT22;27609;51.002;5.354;2022-07-25T12:59:40;28.20;92.80
41922;DHT22;27609;51.002;5.354;2022-07-25T13:02:06;27.90;93.10
41922;DHT22;27609;51.002;5.354;2022-07-25T13:04:33;27.60;93.20
41922;DHT22;27609;51.002;5.354;2022-07-25T13:06:59;27.50;93.80
41922;DHT22;27609;51.002;5.354;2022-07-25T13:09:26;27.30;94.10
41922;DHT22;27609;51.002;5.354;2022-07-25T13:11:52;27.10;94.40
41922;DHT22;27609;51.002;5.354;2022-07-25T13:14:18;27.20;94.90
41922;DHT22;27609;51.002;5.354;2022-07-25T13:16:46;26.50;94.40
41922;DHT22;27609;51.002;5.354;2022-07-25T13:19:13;26.60;94.80
41922;DHT22;27609;51.002;5.354;2022-07-25T13:21:40;26.80;95.10
41922;DHT22;27609;51.002;5.354;2022-07-25T13:24:07;27.30;95.40
41922;DHT22;27609;51.002;5.354;2022-07-25T13:26:33;27.80;94.50
41922;DHT22;27609;51.002;5.354;2022-07-25T13:28:59;28.10;93.40
41922;DHT22;27609;51.002;5.354;2022-07-25T13:31:25;29.60;91.30
41922;DHT22;27609;51.002;5.354;2022-07-25T13:33:51;29.40;90.60
41922;DHT22;27609;51.002;5.354;2022-07-25T13:36:18;28.80;89.60
41922;DHT22;27609;51.002;5.354;2022-07-25T13:38:44;28.70;89.50
41922;DHT22;27609;51.002;5.354;2022-07-25T13:41:11;28.90;89.50
41922;DHT22;27609;51.002;5.354;2022-07-25T13:43:37;29.00;90.10
41922;DHT22;27609;51.002;5.354;2022-07-25T13:46:04;28.40;90.80
41922;DHT22;27609;51.002;5.354;2022-07-25T13:48:30;27.90;91.50
41922;DHT22;27609;51.002;5.354;2022-07-25T13:50:57;28.50;90.80
41922;DHT22;27609;51.002;5.354;2022-07-25T13:53:23;29.10;90.90
41922;DHT22;27609;51.002;5.354;2022-07-25T13:55:50;29.60;89.80
41922;DHT22;27609;51.002;5.354;2022-07-25T13:58:16;29.70;89.70
41922;DHT22;27609;51.002;5.354;2022-07-25T14:00:42;29.90;89.30
41922;DHT22;27609;51.002;5.354;2022-07-25T14:03:09;29.30;89.50
41922;DHT22;27609;51.002;5.354;2022-07-25T14:05:37;29.00;90.10
41922;DHT22;27609;51.002;5.354;2022-07-25T14:08:04;28.60;91.30
41922;DHT22;27609;51.002;5.354;2022-07-25T14:10:30;28.10;91.30
41922;DHT22;27609;51.002;5.354;2022-07-25T14:12:56;28.10;91.90
41922;DHT22;27609;51.002;5.354;2022-07-25T14:15:22;28.00;91.50
41922;DHT22;27609;51.002;5.354;2022-07-25T14:17:48;27.30;92.30
41922;DHT22;27609;51.002;5.354;2022-07-25T14:20:14;27.10;93.60
41922;DHT22;27609;51.002;5.354;2022-07-25T14:22:40;27.10;92.80
41922;DHT22;27609;51.002;5.354;2022-07-25T14:25:08;27.80;92.90
41922;DHT22;27609;51.002;5.354;2022-07-25T14:27:35;28.30;91.90
41922;DHT22;27609;51.002;5.354;2022-07-25T14:30:02;28.20;91.80
41922;DHT22;27609;51.002;5.354;2022-07-25T14:32:28;28.30;92.30
41922;DHT22;27609;51.002;5.354;2022-07-25T14:34:54;28.10;91.90
41922;DHT22;27609;51.002;5.354;2022-07-25T14:37:20;28.50;91.50
41922;DHT22;27609;51.002;5.354;2022-07-25T14:39:48;28.90;90.50
41922;DHT22;27609;51.002;5.354;2022-07-25T14:42:14;28.40;90.70
41922;DHT22;27609;51.002;5.354;2022-07-25T14:44:40;27.90;91.40
41922;DHT22;27609;51.002;5.354;2022-07-25T14:47:06;27.50;92.60
41922;DHT22;27609;51.002;5.354;2022-07-25T14:49:33;27.30;93.20
41922;DHT22;27609;51.002;5.354;2022-07-25T14:51:59;27.20;93.40
41922;DHT22;27609;51.002;5.354;2022-07-25T14:54:25;27.60;94.00
41922;DHT22;27609;51.002;5.354;2022-07-25T14:56:54;28.40;92.70
41922;DHT22;27609;51.002;5.354;2022-07-25T14:59:21;28.70;91.80
41922;DHT22;27609;51.002;5.354;2022-07-25T15:01:47;28.50;92.30
41922;DHT22;27609;51.002;5.354;2022-07-25T15:04:13;28.60;91.80
41922;DHT22;27609;51.002;5.354;2022-07-25T15:06:39;28.00;91.50
41922;DHT22;27609;51.002;5.354;2022-07-25T15:09:05;27.50;92.20
41922;DHT22;27609;51.002;5.354;2022-07-25T15:11:31;27.30;92.60
41922;DHT22;27609;51.002;5.354;2022-07-25T15:13:57;27.20;93.00
41922;DHT22;27609;51.002;5.354;2022-07-25T15:16:23;27.50;92.90
41922;DHT22;27609;51.002;5.354;2022-07-25T15:18:49;28.20;92.50
41922;DHT22;27609;51.002;5.354;2022-07-25T15:21:15;28.70;92.20
41922;DHT22;27609;51.002;5.354;2022-07-25T15:23:41;28.50;90.30
41922;DHT22;27609;51.002;5.354;2022-07-25T15:26:07;28.90;89.40
41922;DHT22;27609;51.002;5.354;2022-07-25T15:28:35;28.60;87.10
41922;DHT22;27609;51.002;5.354;2022-07-25T15:31:01;27.90;87.90
41922;DHT22;27609;51.002;5.354;2022-07-25T15:33:28;27.40;90.30
41922;DHT22;27609;51.002;5.354;2022-07-25T15:35:54;27.70;88.50
41922;DHT22;27609;51.002;5.354;2022-07-25T15:38:20;27.50;88.40
41922;DHT22;27609;51.002;5.354;2022-07-25T15:40:46;27.70;90.40
41922;DHT22;27609;51.002;5.354;2022-07-25T15:43:13;27.80;88.60